Time;durP1;ratioP1;P1;durP2;ratioP2;P2;SDS_P1;SDS_P2;PMS_P1;PMS_P2;Temp;Humidity;BMP_temperature;BMP_pressure;BME280_temperature;BME280_humidity;BME280_pressure;Samples;Min_cycle;Max_cycle;Signal;HPM_P1;HPM_P2
2023/12/16 00:02:03;;;;;;;36.72;21.10;;;153.80;2252.80;;;;;;5065510;28;20018;-72
2023/12/16 00:04:29;;;;;;;48.65;23.92;;;153.80;2252.80;;;;;;5065789;28;20109;-73
2023/12/16 00:06:55;;;;;;;201.43;108.45;;;153.90;2252.80;;;;;;5070257;28;20024;-73
2023/12/16 00:09:21;;;;;;;74.13;40.25;;;153.90;2252.80;;;;;;5065274;28;20040;-73
2023/12/16 00:11:46;;;;;;;63.55;35.00;;;153.80;2252.80;;;;;;5070646;28;20087;-72
2023/12/16 00:14:12;;;;;;;120.57;63.75;;;153.80;2252.80;;;;;;5065265;28;20040;-73
2023/12/16 00:16:46;;;;;;;138.88;71.38;;;153.90;2252.80;;;;;;5073803;28;20582;-72
2023/12/16 00:19:12;;;;;;;55.67;32.72;;;154.10;2252.80;;;;;;5069008;28;20030;-72
2023/12/16 00:21:37;;;;;;;32.38;19.20;;;154.10;2252.80;;;;;;5060454;28;20017;-72
2023/12/16 00:24:06;;;;;;;55.90;31.40;;;154.20;2252.80;;;;;;5063828;28;20025;-73
2023/12/16 00:26:32;;;;;;;20.67;11.30;;;154.10;2252.80;;;;;;5068762;28;20021;-72
2023/12/16 00:28:58;;;;;;;23.10;10.82;;;154.00;2252.80;;;;;;5065747;28;20032;-72
2023/12/16 00:31:24;;;;;;;14.68;9.85;;;154.00;2252.80;;;;;;5062315;28;20517;-74
2023/12/16 00:33:50;;;;;;;30.27;17.67;;;153.90;2252.80;;;;;;5056304;28;20033;-73
2023/12/16 00:36:16;;;;;;;87.13;45.10;;;153.80;2252.80;;;;;;5057622;28;20523;-72
2023/12/16 00:38:42;;;;;;;23.77;13.95;;;153.90;2252.80;;;;;;5064932;28;20138;-72
2023/12/16 00:41:07;;;;;;;15.48;9.82;;;153.80;2252.80;;;;;;5063036;28;20046;-72
2023/12/16 00:43:33;;;;;;;53.92;26.67;;;153.60;2252.80;;;;;;5065653;28;20036;-72
2023/12/16 00:45:59;;;;;;;18.27;11.85;;;153.60;2252.80;;;;;;5063033;28;20103;-73
2023/12/16 00:48:26;;;;;;;35.10;20.00;;;153.80;2252.80;;;;;;5069331;28;20039;-74
2023/12/16 00:50:52;;;;;;;42.55;23.60;;;153.80;2252.80;;;;;;5070877;28;20120;-73
2023/12/16 00:53:17;;;;;;;57.00;31.73;;;153.80;2252.80;;;;;;5072094;28;20155;-73
2023/12/16 00:55:43;;;;;;;45.08;25.23;;;153.90;2252.80;;;;;;5078527;28;20032;-73
2023/12/16 00:58:09;;;;;;;26.85;14.88;;;153.80;2252.80;;;;;;5079147;28;20101;-73
2023/12/16 01:00:35;;;;;;;22.20;14.05;;;153.80;2252.80;;;;;;5084873;28;20024;-72
2023/12/16 01:03:01;;;;;;;21.90;14.13;;;153.80;2252.80;;;;;;5079734;28;20435;-72
2023/12/16 01:05:26;;;;;;;25.98;15.23;;;128.90;2252.80;;;;;;5085791;28;20048;-73
2023/12/16 01:07:52;;;;;;;15.73;8.43;;;153.60;2252.80;;;;;;5081892;28;20039;-73
2023/12/16 01:10:18;;;;;;;16.40;9.98;;;153.60;2252.80;;;;;;5085164;28;20017;-73
2023/12/16 01:12:45;;;;;;;15.82;8.48;;;153.80;2252.80;;;;;;5071021;28;20025;-72
2023/12/16 01:15:11;;;;;;;40.10;18.40;;;128.90;2252.80;;;;;;5076664;28;20031;-72
2023/12/16 01:17:37;;;;;;;18.27;12.63;;;128.90;2252.80;;;;;;5078985;28;20398;-72
2023/12/16 01:20:03;;;;;;;52.78;30.48;;;128.70;2252.80;;;;;;5072750;28;20027;-73
2023/12/16 01:22:29;;;;;;;22.25;13.65;;;128.80;2252.80;;;;;;5087891;28;20066;-72
2023/12/16 01:24:54;;;;;;;28.38;18.88;;;128.70;2252.80;;;;;;5086589;28;20059;-73
2023/12/16 01:27:20;;;;;;;51.83;32.45;;;128.50;2252.80;;;;;;5090308;28;20028;-73
2023/12/16 01:29:46;;;;;;;19.77;12.13;;;128.60;2252.80;;;;;;5091071;28;20369;-72
2023/12/16 01:32:11;;;;;;;22.05;13.32;;;128.60;2252.80;;;;;;5074729;28;20035;-72
2023/12/16 01:34:37;;;;;;;23.88;15.52;;;128.50;2252.80;;;;;;5071358;28;20047;-72
2023/12/16 01:37:03;;;;;;;16.83;9.95;;;128.40;2252.80;;;;;;5070725;28;20029;-73
2023/12/16 01:39:29;;;;;;;15.52;9.27;;;128.50;2252.80;;;;;;5072397;28;20125;-72
2023/12/16 01:41:55;;;;;;;18.70;9.98;;;128.40;2252.80;;;;;;5074316;28;20025;-73
2023/12/16 01:44:21;;;;;;;14.60;10.50;;;128.50;2252.80;;;;;;5072681;28;20055;-73
2023/12/16 01:46:47;;;;;;;15.18;11.30;;;128.60;2252.80;;;;;;5070251;28;20024;-73
2023/12/16 01:49:12;;;;;;;21.30;14.45;;;128.60;2252.80;;;;;;5070099;28;20119;-72
2023/12/16 01:51:38;;;;;;;28.92;16.40;;;128.70;2252.80;;;;;;5070436;28;20099;-72
2023/12/16 01:54:06;;;;;;;45.20;27.60;;;128.70;2252.80;;;;;;5065946;28;20030;-72
2023/12/16 01:56:33;;;;;;;44.03;28.67;;;128.70;2252.80;;;;;;5069860;28;20017;-73
2023/12/16 01:58:59;;;;;;;63.15;34.17;;;128.70;2252.80;;;;;;5083019;28;20478;-73
2023/12/16 02:01:25;;;;;;;39.72;21.27;;;128.60;2252.80;;;;;;5071300;28;20031;-72
2023/12/16 02:03:51;;;;;;;32.80;19.25;;;128.70;2252.80;;;;;;5070479;28;20182;-73
2023/12/16 02:06:17;;;;;;;22.45;12.88;;;128.70;2252.80;;;;;;5070044;28;20027;-72
2023/12/16 02:08:44;;;;;;;16.27;9.77;;;128.30;2252.80;;;;;;5070898;28;20032;-72
2023/12/16 02:11:12;;;;;;;15.15;9.70;;;128.40;2252.80;;;;;;5071309;28;20112;-72
2023/12/16 02:13:37;;;;;;;18.60;11.93;;;128.50;2252.80;;;;;;5072097;28;20048;-73
2023/12/16 02:16:04;;;;;;;16.45;9.07;;;128.30;2252.80;;;;;;5071298;28;20069;-72
2023/12/16 02:18:30;;;;;;;15.77;9.02;;;128.30;2252.80;;;;;;5072818;28;20028;-73
2023/12/16 02:20:56;;;;;;;20.13;12.20;;;128.40;2252.80;;;;;;5059419;28;20036;-73
2023/12/16 02:23:22;;;;;;;16.13;8.75;;;128.30;2252.80;;;;;;5083219;28;20036;-73
2023/12/16 02:25:48;;;;;;;15.32;8.85;;;128.30;2252.80;;;;;;5064119;28;20025;-73
2023/12/16 02:28:13;;;;;;;26.08;16.05;;;128.30;2252.80;;;;;;5077214;28;20399;-72
2023/12/16 02:30:39;;;;;;;29.13;17.10;;;128.40;2252.80;;;;;;5089814;28;20024;-72
2023/12/16 02:33:05;;;;;;;20.42;13.85;;;128.10;2252.80;;;;;;5079973;28;20039;-72
2023/12/16 02:35:31;;;;;;;39.33;24.75;;;128.10;2252.80;;;;;;5086211;28;20024;-73
2023/12/16 02:37:56;;;;;;;17.77;11.70;;;128.40;2252.80;;;;;;5080124;28;20403;-73
2023/12/16 02:40:22;;;;;;;12.95;8.23;;;128.40;2252.80;;;;;;5069484;28;20825;-72
2023/12/16 02:42:48;;;;;;;13.60;8.95;;;128.20;2252.80;;;;;;5069618;28;20471;-72
2023/12/16 02:45:14;;;;;;;13.50;7.32;;;128.20;2252.80;;;;;;5069685;28;20020;-72
2023/12/16 02:47:39;;;;;;;16.90;11.02;;;128.10;2252.80;;;;;;5078831;28;20024;-72
2023/12/16 02:50:07;;;;;;;13.38;7.13;;;128.10;2252.80;;;;;;5073388;28;20042;-72
2023/12/16 02:52:33;;;;;;;14.40;9.88;;;128.00;2252.80;;;;;;5069302;28;20024;-73
2023/12/16 02:54:59;;;;;;;20.52;12.48;;;128.00;2252.80;;;;;;5072436;28;20107;-72
2023/12/16 02:57:24;;;;;;;16.85;10.35;;;128.00;2252.80;;;;;;5079424;28;20024;-73
2023/12/16 02:59:50;;;;;;;17.48;10.57;;;103.30;2227.20;;;;;;5072265;28;20039;-72
2023/12/16 03:02:16;;;;;;;20.05;11.50;;;103.30;2227.20;;;;;;5088639;28;20066;-73
2023/12/16 03:04:43;;;;;;;12.85;7.13;;;103.30;2227.20;;;;;;5057123;28;20077;-72
2023/12/16 03:07:09;;;;;;;13.18;7.05;;;103.20;2227.20;;;;;;5089357;28;20036;-73
2023/12/16 03:09:35;;;;;;;15.52;11.73;;;103.20;2227.20;;;;;;5075754;28;20035;-72
2023/12/16 03:12:01;;;;;;;14.65;8.55;;;103.20;2227.20;;;;;;5089330;28;20482;-73
2023/12/16 03:14:27;;;;;;;14.68;7.13;;;103.30;2227.20;;;;;;5069522;28;20029;-72
2023/12/16 03:16:53;;;;;;;11.55;8.10;;;103.20;2227.20;;;;;;5059191;28;20029;-72
2023/12/16 03:19:19;;;;;;;11.60;6.07;;;103.30;2227.20;;;;;;5070043;28;20032;-73
2023/12/16 03:21:44;;;;;;;11.20;7.60;;;103.20;2227.20;;;;;;5079428;28;20535;-72
2023/12/16 03:24:10;;;;;;;10.80;7.68;;;103.20;2227.20;;;;;;5086096;28;20381;-73
2023/12/16 03:26:36;;;;;;;18.92;8.90;;;103.10;2227.20;;;;;;5069352;28;20437;-72
2023/12/16 03:29:02;;;;;;;10.57;6.43;;;103.10;2227.20;;;;;;5082187;28;20462;-72
2023/12/16 03:31:27;;;;;;;13.65;8.82;;;103.00;2227.20;;;;;;5080913;28;20051;-72
2023/12/16 03:33:53;;;;;;;12.05;7.05;;;103.30;2227.20;;;;;;5093239;28;20054;-72
2023/12/16 03:36:19;;;;;;;10.18;5.55;;;103.10;2227.20;;;;;;5093320;28;20028;-73
2023/12/16 03:38:45;;;;;;;12.75;10.18;;;103.00;2227.20;;;;;;5075332;28;20050;-73
2023/12/16 03:41:12;;;;;;;17.35;10.32;;;103.00;2227.20;;;;;;5065681;28;20437;-73
2023/12/16 03:43:38;;;;;;;11.80;10.40;;;103.00;2227.20;;;;;;5072607;28;20024;-73
2023/12/16 03:46:04;;;;;;;10.20;6.80;;;103.10;2227.20;;;;;;5083011;28;20050;-73
2023/12/16 03:48:30;;;;;;;9.02;5.72;;;103.00;2227.20;;;;;;5093020;28;20035;-73
2023/12/16 03:50:55;;;;;;;11.80;6.63;;;103.00;2227.20;;;;;;5093146;28;20024;-73
2023/12/16 03:53:21;;;;;;;22.48;11.60;;;102.90;2227.20;;;;;;5075287;28;20027;-73
2023/12/16 03:55:47;;;;;;;16.15;8.88;;;103.00;2227.20;;;;;;5076076;28;20081;-73
2023/12/16 03:58:13;;;;;;;10.82;6.45;;;103.00;2227.20;;;;;;5086122;28;20496;-72
2023/12/16 04:00:39;;;;;;;12.00;7.32;;;102.90;2227.20;;;;;;5083412;28;20547;-71
2023/12/16 04:03:04;;;;;;;12.60;7.07;;;103.00;2227.20;;;;;;5083706;28;20403;-72
2023/12/16 04:05:31;;;;;;;9.10;6.75;;;102.90;2227.20;;;;;;5072057;28;20045;-73
2023/12/16 04:07:56;;;;;;;12.15;7.40;;;102.90;2227.20;;;;;;5072367;28;20029;-72
2023/12/16 04:10:22;;;;;;;12.35;7.30;;;102.90;2227.20;;;;;;5072660;28;20025;-72
2023/12/16 04:12:48;;;;;;;14.05;7.88;;;103.00;2227.20;;;;;;5082074;28;20016;-73
2023/12/16 04:15:14;;;;;;;9.20;6.40;;;102.90;2227.20;;;;;;5092514;28;20091;-72
2023/12/16 04:17:40;;;;;;;12.38;7.78;;;102.80;2227.20;;;;;;5063996;28;20073;-73
2023/12/16 04:20:06;;;;;;;11.63;7.10;;;102.80;2227.20;;;;;;5077008;28;20024;-73
2023/12/16 04:22:32;;;;;;;11.00;7.05;;;102.90;2227.20;;;;;;5085724;28;20067;-73
2023/12/16 04:24:58;;;;;;;12.27;7.82;;;102.80;2227.20;;;;;;5072323;28;20052;-73
2023/12/16 04:27:27;;;;;;;10.25;6.78;;;102.70;2227.20;;;;;;5070558;28;20028;-73
2023/12/16 04:29:53;;;;;;;12.60;7.97;;;102.80;2227.20;;;;;;5081926;28;20040;-73
2023/12/16 04:32:19;;;;;;;13.95;8.80;;;102.80;2227.20;;;;;;5083425;28;20438;-73
2023/12/16 04:34:45;;;;;;;12.73;7.85;;;102.70;2227.20;;;;;;5092283;28;20059;-73
2023/12/16 04:37:10;;;;;;;15.05;8.43;;;102.70;2227.20;;;;;;5078472;28;20016;-73
2023/12/16 04:39:37;;;;;;;12.35;7.25;;;102.80;2227.20;;;;;;5092269;28;20363;-73
2023/12/16 04:42:03;;;;;;;12.60;7.90;;;102.70;2227.20;;;;;;5078334;28;20020;-74
2023/12/16 04:44:29;;;;;;;10.52;6.35;;;102.60;2227.20;;;;;;5091874;28;20394;-73
2023/12/16 04:46:55;;;;;;;14.40;7.80;;;102.70;2227.20;;;;;;5092192;28;20047;-73
2023/12/16 04:49:21;;;;;;;13.57;7.93;;;102.70;2227.20;;;;;;5081328;28;20044;-72
2023/12/16 04:51:46;;;;;;;11.70;7.07;;;102.60;2227.20;;;;;;5075467;28;20020;-72
2023/12/16 04:54:12;;;;;;;12.60;7.93;;;102.60;2227.20;;;;;;5080954;28;20029;-72
2023/12/16 04:56:38;;;;;;;12.15;7.63;;;102.60;2227.20;;;;;;5061805;28;20023;-72
2023/12/16 04:59:04;;;;;;;15.90;12.75;;;102.50;2227.20;;;;;;5072947;28;20077;-73
2023/12/16 05:01:30;;;;;;;16.08;10.38;;;102.40;2227.20;;;;;;5074201;28;20040;-72
2023/12/16 05:03:55;;;;;;;16.70;8.70;;;102.40;2227.20;;;;;;5071153;28;20084;-73
2023/12/16 05:06:21;;;;;;;14.57;8.70;;;102.50;2227.20;;;;;;5070900;28;20084;-73
2023/12/16 05:08:47;;;;;;;17.08;8.50;;;102.40;2227.20;;;;;;5071387;28;20040;-73
2023/12/16 05:11:13;;;;;;;15.85;9.23;;;102.50;2227.20;;;;;;5074622;28;20016;-73
2023/12/16 05:13:39;;;;;;;13.82;7.90;;;102.50;2227.20;;;;;;5084387;28;20576;-73
2023/12/16 05:16:05;;;;;;;12.68;7.53;;;102.50;2227.20;;;;;;5074155;28;20355;-72
2023/12/16 05:18:30;;;;;;;14.63;7.85;;;102.40;2227.20;;;;;;5081669;28;20036;-73
2023/12/16 05:20:56;;;;;;;15.30;9.35;;;77.70;2227.20;;;;;;5087483;28;20024;-73
2023/12/16 05:23:22;;;;;;;15.00;8.18;;;77.70;2227.20;;;;;;5071120;28;20032;-73
2023/12/16 05:25:48;;;;;;;15.57;9.43;;;77.60;2227.20;;;;;;5070937;28;20021;-72
2023/12/16 05:28:13;;;;;;;16.73;9.43;;;77.70;2227.20;;;;;;5065295;28;20040;-70
2023/12/16 05:30:39;;;;;;;13.73;9.70;;;77.60;2227.20;;;;;;5062210;28;20028;-71
2023/12/16 05:33:05;;;;;;;14.07;10.35;;;77.50;2227.20;;;;;;5080400;28;20032;-73
2023/12/16 05:35:31;;;;;;;14.77;8.82;;;77.40;2227.20;;;;;;5077029;28;20032;-73
2023/12/16 05:37:57;;;;;;;16.20;10.23;;;77.40;2227.20;;;;;;5081202;28;20078;-72
2023/12/16 05:40:23;;;;;;;13.93;9.10;;;77.20;2227.20;;;;;;5070735;28;20024;-72
2023/12/16 05:42:49;;;;;;;15.13;9.00;;;77.10;2227.20;;;;;;5070812;28;20032;-72
2023/12/16 05:45:14;;;;;;;15.05;8.98;;;77.10;2227.20;;;;;;5086746;28;20032;-71
2023/12/16 05:47:40;;;;;;;14.77;9.27;;;77.00;2227.20;;;;;;5090601;28;20024;-73
2023/12/16 05:50:08;;;;;;;15.30;9.27;;;77.10;2227.20;;;;;;5087708;28;20036;-72
2023/12/16 05:52:36;;;;;;;17.10;9.43;;;77.10;2227.20;;;;;;5080324;28;20107;-72
2023/12/16 05:55:02;;;;;;;15.55;9.43;;;77.00;2227.20;;;;;;5086100;28;20090;-72
2023/12/16 05:57:28;;;;;;;18.08;12.85;;;76.90;2227.20;;;;;;5081109;28;20024;-71
2023/12/16 05:59:54;;;;;;;15.30;10.55;;;76.80;2227.20;;;;;;5075350;28;20032;-72
2023/12/16 06:02:19;;;;;;;17.63;9.55;;;52.10;2227.20;;;;;;5071466;28;20039;-72
2023/12/16 06:04:45;;;;;;;15.90;9.70;;;76.80;2227.20;;;;;;5088021;28;20052;-72
2023/12/16 06:07:11;;;;;;;15.23;9.10;;;52.10;2227.20;;;;;;5080968;28;20053;-72
2023/12/16 06:09:37;;;;;;;14.85;9.93;;;76.80;2227.20;;;;;;5085059;28;20073;-72
2023/12/16 06:12:03;;;;;;;15.38;9.90;;;52.10;2227.20;;;;;;5081263;28;20463;-73
2023/12/16 06:14:29;;;;;;;37.70;21.77;;;52.10;2227.20;;;;;;5089735;28;20137;-73
2023/12/16 06:16:55;;;;;;;33.50;24.38;;;52.10;2227.20;;;;;;5067362;28;20029;-73
2023/12/16 06:19:20;;;;;;;68.85;39.42;;;52.00;2227.20;;;;;;5072659;28;20055;-73
2023/12/16 06:21:46;;;;;;;24.55;16.15;;;51.90;2227.20;;;;;;5077140;28;20154;-72
2023/12/16 06:24:12;;;;;;;26.52;17.02;;;51.90;2227.20;;;;;;5074372;28;20068;-73
2023/12/16 06:26:38;;;;;;;54.08;37.70;;;51.90;2227.20;;;;;;5090278;28;20417;-73
2023/12/16 06:29:04;;;;;;;61.45;34.95;;;51.90;2227.20;;;;;;5089806;28;20036;-73
2023/12/16 06:31:29;;;;;;;210.90;115.07;;;52.00;2227.20;;;;;;5073065;28;20028;-73
2023/12/16 06:33:55;;;;;;;166.88;106.90;;;51.90;2227.20;;;;;;5057643;28;20045;-72
2023/12/16 06:36:21;;;;;;;24.25;16.17;;;52.00;2227.20;;;;;;5079426;28;20074;-73
2023/12/16 06:38:46;;;;;;;39.55;27.15;;;52.00;2227.20;;;;;;5090169;28;20028;-72
2023/12/16 06:41:12;;;;;;;36.65;26.88;;;52.00;2227.20;;;;;;5079721;28;20025;-73
2023/12/16 06:43:38;;;;;;;43.42;31.27;;;52.00;2227.20;;;;;;5085253;28;20028;-72
2023/12/16 06:46:05;;;;;;;16.13;11.05;;;52.10;2227.20;;;;;;5090440;28;20088;-72
2023/12/16 06:48:31;;;;;;;15.23;9.68;;;52.00;2227.20;;;;;;5076515;28;20037;-74
2023/12/16 06:50:59;;;;;;;18.40;11.88;;;52.10;2227.20;;;;;;5076271;28;20063;-73
2023/12/16 06:53:25;;;;;;;19.80;12.75;;;52.10;2227.20;;;;;;5089704;28;20067;-74
2023/12/16 06:55:52;;;;;;;28.08;15.85;;;52.10;2227.20;;;;;;5075533;28;20048;-73
2023/12/16 06:58:19;;;;;;;26.35;19.23;;;52.10;2227.20;;;;;;5090105;28;20493;-72
2023/12/16 07:00:45;;;;;;;21.80;14.85;;;52.10;2227.20;;;;;;5078022;28;20058;-72
2023/12/16 07:03:11;;;;;;;22.80;14.68;;;52.10;2227.20;;;;;;5061488;28;20040;-72
2023/12/16 07:05:37;;;;;;;24.88;15.02;;;76.80;2227.20;;;;;;5067561;28;20053;-71
2023/12/16 07:08:03;;;;;;;38.65;25.23;;;52.10;2227.20;;;;;;5082328;28;20351;-72
2023/12/16 07:10:29;;;;;;;33.85;21.13;;;52.10;2227.20;;;;;;5068367;28;20063;-72
2023/12/16 07:12:55;;;;;;;26.77;17.42;;;76.80;2227.20;;;;;;5068631;28;20113;-72
2023/12/16 07:15:21;;;;;;;22.33;14.60;;;77.00;2227.20;;;;;;5070431;28;20070;-72
2023/12/16 07:17:47;;;;;;;20.90;14.25;;;76.90;2227.20;;;;;;5088493;28;20026;-72
2023/12/16 07:20:13;;;;;;;24.27;17.52;;;76.90;2227.20;;;;;;5082675;28;20094;-72
2023/12/16 07:22:39;;;;;;;23.33;17.23;;;76.90;2227.20;;;;;;5070476;28;20115;-71
2023/12/16 07:25:06;;;;;;;33.78;21.38;;;77.00;2227.20;;;;;;5081453;28;20025;-71
2023/12/16 07:27:32;;;;;;;48.47;29.63;;;77.10;2227.20;;;;;;5069818;28;20020;-71
2023/12/16 07:29:58;;;;;;;58.13;36.55;;;77.20;2227.20;;;;;;5067963;28;20386;-72
2023/12/16 07:32:24;;;;;;;29.50;15.32;;;77.30;2227.20;;;;;;5068152;28;20090;-72
2023/12/16 07:34:50;;;;;;;25.58;14.95;;;77.40;2227.20;;;;;;5068362;28;20098;-72
2023/12/16 07:37:16;;;;;;;20.48;12.63;;;77.40;2227.20;;;;;;5071318;28;20032;-71
2023/12/16 07:39:42;;;;;;;16.95;10.82;;;77.40;2227.20;;;;;;5071388;28;20029;-72
2023/12/16 07:42:08;;;;;;;32.38;19.75;;;77.40;2227.20;;;;;;5075005;28;20066;-71
2023/12/16 07:44:34;;;;;;;23.30;14.48;;;77.50;2227.20;;;;;;5076253;28;20028;-71
2023/12/16 07:47:00;;;;;;;19.08;11.80;;;77.50;2227.20;;;;;;5069070;28;20428;-72
2023/12/16 07:49:26;;;;;;;20.85;12.40;;;77.50;2227.20;;;;;;5068482;28;20036;-70
2023/12/16 07:51:57;;;;;;;27.75;15.85;;;77.40;2227.20;;;;;;5079090;28;20036;-71
2023/12/16 07:54:24;;;;;;;24.05;12.98;;;77.50;2227.20;;;;;;5076543;28;20023;-72
2023/12/16 07:56:50;;;;;;;31.00;16.63;;;77.60;2227.20;;;;;;5058156;28;20031;-68
2023/12/16 07:59:16;;;;;;;19.00;10.43;;;77.70;2227.20;;;;;;5069952;28;20120;-71
2023/12/16 08:01:42;;;;;;;21.80;13.52;;;77.70;2227.20;;;;;;5071379;28;20032;-73
2023/12/16 08:04:08;;;;;;;32.65;18.20;;;77.70;2227.20;;;;;;5077015;28;20064;-72
2023/12/16 08:06:33;;;;;;;21.02;13.50;;;102.40;2227.20;;;;;;5065937;28;20029;-72
2023/12/16 08:08:59;;;;;;;59.72;32.28;;;102.40;2227.20;;;;;;5068271;28;20071;-72
2023/12/16 08:11:25;;;;;;;29.77;18.48;;;102.60;2227.20;;;;;;5066928;28;20028;-72
2023/12/16 08:13:51;;;;;;;19.58;10.05;;;102.70;2227.20;;;;;;5070097;28;20037;-62
2023/12/16 08:16:17;;;;;;;167.93;58.33;;;102.60;2227.20;;;;;;5076045;28;20028;-64
2023/12/16 08:18:42;;;;;;;18.77;9.77;;;102.80;2227.20;;;;;;5075180;28;20027;-63
2023/12/16 08:21:08;;;;;;;17.85;9.05;;;103.10;2227.20;;;;;;5079953;28;20048;-63
2023/12/16 08:23:34;;;;;;;15.80;10.68;;;128.90;2252.80;;;;;;5072346;28;20020;-62
2023/12/16 08:26:00;;;;;;;20.10;12.73;;;153.80;2252.80;;;;;;5075372;28;20509;-62
2023/12/16 08:28:26;;;;;;;13.05;9.32;;;153.60;2252.80;;;;;;5090376;28;20031;-63
2023/12/16 08:30:52;;;;;;;44.65;21.73;;;128.90;2252.80;;;;;;5086854;28;20028;-62
2023/12/16 08:33:18;;;;;;;15.63;8.45;;;128.70;2252.80;;;;;;5071377;28;20098;-64
2023/12/16 08:35:44;;;;;;;35.38;12.90;;;128.50;2252.80;;;;;;5055894;28;20738;-63
2023/12/16 08:38:10;;;;;;;66.22;35.35;;;128.90;2252.80;;;;;;5069870;28;20028;-63
2023/12/16 08:40:35;;;;;;;14.73;10.30;;;179.70;2252.80;;;;;;5085616;28;20016;-62
2023/12/16 08:43:01;;;;;;;32.03;18.58;;;230.60;2252.80;;;;;;5071794;28;20390;-62
2023/12/16 08:45:27;;;;;;;44.55;26.80;;;256.40;2176.00;;;;;;5071474;28;20520;-65
2023/12/16 08:47:53;;;;;;;96.68;64.40;;;282.30;2073.60;;;;;;5071472;28;20036;-65
2023/12/16 08:50:18;;;;;;;50.78;34.92;;;308.10;1971.20;;;;;;5077277;28;20501;-62
2023/12/16 08:52:44;;;;;;;65.80;37.15;;;333.40;1920.00;;;;;;5076686;28;20024;-64
2023/12/16 08:55:10;;;;;;;48.63;32.72;;;359.10;1817.60;;;;;;5079698;28;20060;-63
2023/12/16 08:57:36;;;;;;;33.08;24.67;;;359.00;1766.40;;;;;;5084989;28;20059;-63
2023/12/16 09:00:02;;;;;;;38.97;30.73;;;384.10;1740.80;;;;;;5075674;28;20586;-63
2023/12/16 09:02:27;;;;;;;25.63;20.35;;;384.40;1689.60;;;;;;5076185;28;20016;-64
2023/12/16 09:04:53;;;;;;;39.95;31.52;;;384.90;1664.00;;;;;;5077069;28;20063;-63
2023/12/16 09:07:19;;;;;;;27.17;21.52;;;410.50;1612.80;;;;;;5075273;28;20028;-63
2023/12/16 09:09:45;;;;;;;16.63;13.27;;;410.00;1638.40;;;;;;5073759;28;20112;-64
2023/12/16 09:12:11;;;;;;;16.88;14.13;;;410.00;1612.80;;;;;;5071330;28;20017;-63
2023/12/16 09:14:40;;;;;;;12.98;10.80;;;409.60;1638.40;;;;;;5071080;28;20025;-63
2023/12/16 09:17:06;;;;;;;66.60;38.42;;;384.70;1638.40;;;;;;5074651;28;20048;-62
2023/12/16 09:19:31;;;;;;;17.02;12.05;;;359.30;1689.60;;;;;;5070746;28;20056;-63
2023/12/16 09:21:57;;;;;;;23.98;17.40;;;358.40;1715.20;;;;;;5072906;28;20382;-63
2023/12/16 09:24:23;;;;;;;26.48;17.63;;;307.60;1817.60;;;;;;5085721;28;20024;-62
2023/12/16 09:26:49;;;;;;;18.17;13.10;;;307.80;1843.20;;;;;;5074111;28;20960;-61
2023/12/16 09:29:15;;;;;;;14.55;10.85;;;282.00;1868.80;;;;;;5085554;28;20038;-63
2023/12/16 09:31:41;;;;;;;34.20;25.48;;;256.40;1945.60;;;;;;5070484;28;20060;-63
2023/12/16 09:34:07;;;;;;;73.30;44.05;;;205.70;2022.40;;;;;;5084227;28;20029;-63
2023/12/16 09:36:33;;;;;;;39.72;28.27;;;205.50;2099.20;;;;;;5082072;28;20024;-62
2023/12/16 09:38:59;;;;;;;21.77;13.43;;;205.00;2124.80;;;;;;5066495;28;20108;-62
2023/12/16 09:41:30;;;;;;;28.88;21.38;;;179.40;2201.60;;;;;;5069594;28;20020;-61
2023/12/16 09:44:00;;;;;;;55.45;40.08;;;154.50;2252.80;;;;;;5086834;28;20121;-63
2023/12/16 09:46:33;;;;;;;44.00;26.92;;;179.50;2252.80;;;;;;5073849;28;20095;-62
2023/12/16 09:48:59;;;;;;;44.95;29.23;;;179.50;2252.80;;;;;;5070109;28;20041;-63
2023/12/16 09:51:25;;;;;;;24.83;14.35;;;179.50;2252.80;;;;;;5070845;28;20097;-61
2023/12/16 09:53:52;;;;;;;35.58;23.65;;;179.40;2227.20;;;;;;5084747;28;20028;-64
2023/12/16 09:56:19;;;;;;;25.83;16.75;;;179.20;2201.60;;;;;;5071042;28;20031;-62
2023/12/16 09:58:46;;;;;;;24.80;14.13;;;179.40;2227.20;;;;;;5085329;28;20028;-64
2023/12/16 10:01:13;;;;;;;21.35;15.07;;;179.30;2252.80;;;;;;5074057;28;20020;-62
2023/12/16 10:03:39;;;;;;;21.33;13.63;;;179.40;2252.80;;;;;;5069910;28;20048;-64
2023/12/16 10:06:09;;;;;;;23.02;13.38;;;179.20;2252.80;;;;;;5068818;28;20040;-62
2023/12/16 10:08:36;;;;;;;25.33;14.82;;;154.50;2252.80;;;;;;5069963;28;20039;-62
2023/12/16 10:11:03;;;;;;;10.45;7.13;;;154.50;2227.20;;;;;;5068708;28;20020;-62
2023/12/16 10:13:34;;;;;;;33.50;21.83;;;179.20;2201.60;;;;;;5069711;28;20035;-62
2023/12/16 10:16:00;;;;;;;39.47;23.70;;;179.50;2201.60;;;;;;5069957;28;20060;-62
2023/12/16 10:18:29;;;;;;;39.03;24.85;;;179.60;2176.00;;;;;;5083233;28;20154;-62
2023/12/16 10:20:57;;;;;;;31.38;20.90;;;179.50;2201.60;;;;;;5083490;28;20020;-60
2023/12/16 10:23:23;;;;;;;26.10;16.15;;;179.40;2227.20;;;;;;5069778;28;20028;-62
2023/12/16 10:25:50;;;;;;;21.85;14.75;;;179.40;2227.20;;;;;;5070071;28;20030;-62
2023/12/16 10:28:18;;;;;;;20.55;12.95;;;179.30;2176.00;;;;;;5080959;28;20024;-62
2023/12/16 10:30:44;;;;;;;15.23;11.95;;;154.50;2150.40;;;;;;5076436;28;20024;-62
2023/12/16 10:33:10;;;;;;;23.48;14.85;;;154.20;2201.60;;;;;;5079551;28;20036;-62
2023/12/16 10:35:37;;;;;;;18.92;12.27;;;154.40;2201.60;;;;;;5072364;28;20029;-62
2023/12/16 10:38:04;;;;;;;18.02;13.23;;;154.20;2150.40;;;;;;5069771;28;20025;-62
2023/12/16 10:40:31;;;;;;;28.83;17.75;;;154.30;2176.00;;;;;;5073658;28;20031;-62
2023/12/16 10:42:57;;;;;;;16.95;12.05;;;154.40;2176.00;;;;;;5061536;28;20539;-62
2023/12/16 10:45:25;;;;;;;19.70;12.77;;;179.20;2150.40;;;;;;5087577;28;20107;-62
2023/12/16 10:47:55;;;;;;;31.08;17.27;;;179.20;2150.40;;;;;;5089597;28;20099;-66
2023/12/16 10:50:25;;;;;;;19.05;11.05;;;179.40;2201.60;;;;;;5075779;28;20035;-63
2023/12/16 10:52:56;;;;;;;13.65;8.73;;;179.20;2176.00;;;;;;5077241;28;20024;-62
2023/12/16 10:55:30;;;;;;;15.27;10.82;;;179.30;2176.00;;;;;;5067800;28;20025;-63
2023/12/16 10:58:07;;;;;;;15.48;10.43;;;179.20;2150.40;;;;;;5069763;28;20070;-62
2023/12/16 11:00:37;;;;;;;20.10;13.02;;;154.20;2176.00;;;;;;5069338;28;20016;-62
2023/12/16 11:03:28;;;;;;;18.77;11.88;;;154.50;2176.00;;;;;;5069068;28;20028;-62
2023/12/16 11:06:03;;;;;;;73.80;42.13;;;179.50;2176.00;;;;;;5069047;28;20036;-61
2023/12/16 11:08:29;;;;;;;102.05;60.72;;;179.50;2150.40;;;;;;5056669;28;20044;-62
2023/12/16 11:10:56;;;;;;;19.15;12.10;;;179.70;2150.40;;;;;;5069651;28;20107;-63
2023/12/16 11:13:22;;;;;;;25.70;15.82;;;179.80;2124.80;;;;;;5078794;28;20020;-62
2023/12/16 11:15:54;;;;;;;85.40;54.78;;;179.80;2150.40;;;;;;5053926;28;20063;-62
2023/12/16 11:18:23;;;;;;;74.05;47.30;;;179.90;2099.20;;;;;;5069224;28;20028;-62
2023/12/16 11:20:52;;;;;;;28.85;16.85;;;179.90;2124.80;;;;;;5081666;28;20016;-62
2023/12/16 11:23:19;;;;;;;23.58;13.55;;;179.90;2124.80;;;;;;5077519;28;20497;-62
2023/12/16 11:25:49;;;;;;;24.27;15.57;;;205.00;2124.80;;;;;;5082656;28;20032;-62
2023/12/16 11:28:17;;;;;;;16.98;11.55;;;180.10;2124.80;;;;;;5069121;28;20036;-62
2023/12/16 11:30:44;;;;;;;26.58;20.23;;;180.10;2099.20;;;;;;5069031;28;20100;-61
2023/12/16 11:33:11;;;;;;;30.50;18.13;;;204.80;2073.60;;;;;;5069090;28;20029;-62
2023/12/16 11:35:37;;;;;;;32.53;21.75;;;204.80;2073.60;;;;;;5068462;28;20045;-62
2023/12/16 11:38:03;;;;;;;19.17;11.40;;;204.80;2073.60;;;;;;5079502;28;20351;-62
2023/12/16 11:40:49;;;;;;;14.88;12.25;;;180.10;2048.00;;;;;;5075208;28;20020;-62
2023/12/16 11:43:15;;;;;;;22.08;15.52;;;180.10;2073.60;;;;;;5075955;28;20028;-62
2023/12/16 11:45:43;;;;;;;28.98;19.98;;;179.60;2099.20;;;;;;5071867;28;20525;-63
2023/12/16 11:48:11;;;;;;;25.70;15.40;;;179.30;2150.40;;;;;;5067291;28;20417;-62
2023/12/16 11:50:39;;;;;;;28.52;17.23;;;179.40;2150.40;;;;;;5084009;28;20107;-64
2023/12/16 11:53:11;;;;;;;18.42;12.00;;;179.60;2176.00;;;;;;5087810;28;20036;-62
2023/12/16 11:55:39;;;;;;;30.02;20.60;;;179.80;2176.00;;;;;;5081435;28;20069;-62
2023/12/16 11:58:05;;;;;;;24.45;16.02;;;180.00;2150.40;;;;;;5089346;28;20078;-62
2023/12/16 12:00:31;;;;;;;23.40;16.50;;;180.10;2150.40;;;;;;5076458;28;20417;-63